Time;durP1;ratioP1;P1;durP2;ratioP2;P2;SDS_P1;SDS_P2;PMS_P1;PMS_P2;Temp;Humidity;BMP_temperature;BMP_pressure;BME280_temperature;BME280_humidity;BME280_pressure;Samples;Min_cycle;Max_cycle;Signal;HPM_P1;HPM_P2
2022/08/26 00:01:18;;;;;;;13.70;6.10;;;;;;;19.46;71.05;98304.00;105853;1277;22548;-68
2022/08/26 00:03:46;;;;;;;13.00;6.20;;;;;;;19.41;71.09;98305.31;105808;1278;24291;-68
2022/08/26 00:06:13;;;;;;;11.80;6.00;;;;;;;19.37;71.11;98308.71;105844;1277;22742;-68
2022/08/26 00:08:40;;;;;;;11.80;6.30;;;;;;;19.32;71.14;98303.52;105855;1277;22550;-68
2022/08/26 00:11:08;;;;;;;11.00;6.30;;;;;;;19.26;71.27;98299.33;105774;1278;24096;-68
2022/08/26 00:13:36;;;;;;;14.50;7.00;;;;;;;19.21;71.43;98299.04;105807;1277;25251;-68
2022/08/26 00:16:05;;;;;;;15.20;7.70;;;;;;;19.18;71.51;98303.58;105791;1277;22529;-68
2022/08/26 00:18:33;;;;;;;12.30;6.30;;;;;;;19.13;71.59;98298.29;105834;1278;22542;-68
2022/08/26 00:21:00;;;;;;;13.50;6.20;;;;;;;19.11;71.61;98297.58;105782;1278;24399;-68
2022/08/26 00:23:26;;;;;;;11.30;6.40;;;;;;;19.08;71.70;98296.08;105810;1277;24117;-68
2022/08/26 00:25:56;;;;;;;15.70;6.40;;;;;;;19.06;71.93;98293.20;105820;1278;24450;-68
2022/08/26 00:28:23;;;;;;;11.10;6.60;;;;;;;19.03;72.08;98296.95;105805;1277;23964;-68
2022/08/26 00:30:52;;;;;;;11.90;6.30;;;;;;;18.96;72.47;98296.75;105818;1277;22543;-68
2022/08/26 00:33:20;;;;;;;12.30;6.60;;;;;;;18.86;72.88;98298.25;105790;1278;25583;-68
2022/08/26 00:35:47;;;;;;;12.40;6.30;;;;;;;18.78;73.08;98296.88;105770;1277;25357;-69
2022/08/26 00:38:15;;;;;;;11.80;6.70;;;;;;;18.72;73.39;98297.25;105808;1278;22611;-69
2022/08/26 00:40:49;;;;;;;13.30;6.70;;;;;;;18.69;73.65;98298.15;105775;1278;22626;-69
2022/08/26 00:43:16;;;;;;;11.10;7.00;;;;;;;18.64;73.94;98302.30;105818;1277;22546;-69
2022/08/26 00:45:50;;;;;;;12.40;6.30;;;;;;;18.61;74.24;98302.56;105799;1278;22838;-69
2022/08/26 00:48:21;;;;;;;15.80;6.40;;;;;;;18.55;74.37;98305.05;105870;1277;22521;-69
2022/08/26 00:51:00;;;;;;;11.80;6.40;;;;;;;18.48;74.20;98295.56;105795;1277;24407;-69
2022/08/26 00:53:31;;;;;;;8.70;6.20;;;;;;;18.43;74.16;98299.91;105820;1278;24495;-69
2022/08/26 00:56:04;;;;;;;8.20;6.30;;;;;;;18.40;74.36;98305.79;105872;1277;24299;-69
2022/08/26 00:58:33;;;;;;;10.60;6.20;;;;;;;18.38;74.62;98310.73;105827;1277;22553;-69
2022/08/26 01:01:01;;;;;;;10.90;6.50;;;;;;;18.36;74.74;98309.76;105839;1277;22580;-69
2022/08/26 01:03:32;;;;;;;12.00;6.00;;;;;;;18.35;74.76;98309.77;105843;1277;24247;-69
2022/08/26 01:06:01;;;;;;;13.10;6.80;;;;;;;18.32;74.91;98315.77;105814;1277;23939;-69
2022/08/26 01:08:28;;;;;;;11.00;6.70;;;;;;;18.27;75.17;98314.36;105821;1277;24123;-69
2022/08/26 01:10:56;;;;;;;10.50;6.50;;;;;;;18.22;75.22;98315.33;105818;1278;24252;-69
2022/08/26 01:13:24;;;;;;;11.30;6.00;;;;;;;18.17;75.27;98314.45;105747;1278;30519;-69
2022/08/26 01:15:55;;;;;;;8.80;6.10;;;;;;;18.10;75.40;98311.91;105821;1277;24234;-69
2022/08/26 01:18:24;;;;;;;16.60;6.10;;;;;;;18.02;75.46;98312.42;105766;1277;22609;-69
2022/08/26 01:21:10;;;;;;;9.90;6.00;;;;;;;17.95;75.77;98312.63;105881;1277;22783;-69
2022/08/26 01:23:41;;;;;;;12.40;5.90;;;;;;;17.89;76.11;98309.35;105819;1278;30291;-69
2022/08/26 01:26:20;;;;;;;10.00;6.10;;;;;;;17.84;76.38;98307.80;105840;1277;25488;-69
2022/08/26 01:28:50;;;;;;;10.00;5.40;;;;;;;17.78;76.54;98307.42;105853;1276;24495;-69
2022/08/26 01:31:22;;;;;;;8.30;5.90;;;;;;;17.73;76.82;98309.81;105884;1277;25945;-69
2022/08/26 01:34:06;;;;;;;13.70;6.80;;;;;;;17.69;76.90;98307.94;106052;1277;31421;-70
2022/08/26 01:36:33;;;;;;;12.10;5.90;;;;;;;17.64;76.97;98308.92;105812;1278;25451;-69
2022/08/26 01:39:00;;;;;;;9.30;5.50;;;;;;;17.62;76.94;98306.96;105793;1277;25414;-69
2022/08/26 01:41:27;;;;;;;14.50;6.10;;;;;;;17.60;76.89;98301.39;105803;1278;22564;-69
2022/08/26 01:43:56;;;;;;;8.00;5.60;;;;;;;17.56;77.02;98303.41;105821;1278;22715;-69
2022/08/26 01:46:25;;;;;;;11.90;5.90;;;;;;;17.49;77.23;98305.05;105863;1277;22546;-69
2022/08/26 01:48:53;;;;;;;;;;;;;;;17.43;77.54;98303.86;105877;1277;22536;-69
2022/08/26 01:51:25;;;;;;;13.50;6.10;;;;;;;17.39;77.92;98304.13;105888;1277;24250;-69
2022/08/26 01:53:53;;;;;;;9.40;5.60;;;;;;;17.38;78.10;98302.98;105780;1277;22689;-69
2022/08/26 01:56:22;;;;;;;12.20;5.60;;;;;;;17.38;77.77;98301.16;105863;1277;25242;-69
2022/08/26 01:58:56;;;;;;;14.50;5.80;;;;;;;17.39;77.38;98300.22;105815;1277;22735;-69
2022/08/26 02:01:25;;;;;;;7.70;5.10;;;;;;;17.41;77.14;98296.94;105564;1277;24217;-69
2022/08/26 02:04:15;;;;;;;12.40;4.90;;;;;;;17.43;76.85;98298.39;105896;1277;24325;-69
2022/08/26 02:06:43;;;;;;;12.50;4.90;;;;;;;17.46;76.59;98299.02;105892;1277;25201;-69
2022/08/26 02:09:11;;;;;;;14.00;5.80;;;;;;;17.47;76.49;98297.91;105979;1278;25471;-69
2022/08/26 02:11:38;;;;;;;11.00;5.00;;;;;;;17.50;76.54;98299.75;106061;1277;22834;-69
2022/08/26 02:14:19;;;;;;;9.00;4.90;;;;;;;17.51;76.30;98296.49;105858;1277;22533;-69
2022/08/26 02:16:50;;;;;;;13.60;6.00;;;;;;;17.52;76.03;98296.15;105876;1277;25254;-69
2022/08/26 02:19:29;;;;;;;12.80;5.60;;;;;;;17.51;75.99;98295.17;105918;1277;22556;-69
2022/08/26 02:21:58;;;;;;;11.10;5.60;;;;;;;17.52;75.76;98296.55;105888;1277;24366;-69
2022/08/26 02:24:28;;;;;;;9.90;4.70;;;;;;;17.51;75.71;98296.38;105749;1277;24399;-69
2022/08/26 02:26:57;;;;;;;13.90;5.20;;;;;;;17.51;75.68;98291.80;105887;1277;24234;-69
2022/08/26 02:29:30;;;;;;;11.20;5.10;;;;;;;17.51;75.37;98295.38;106055;1277;22550;-68
2022/08/26 02:31:57;;;;;;;9.50;5.00;;;;;;;17.50;75.40;98292.48;105943;1277;24393;-69
2022/08/26 02:34:32;;;;;;;10.10;5.10;;;;;;;17.50;75.26;98290.88;105857;1277;25709;-68
2022/08/26 02:37:01;;;;;;;14.80;5.10;;;;;;;17.51;74.96;98291.15;105856;1277;23969;-68
2022/08/26 02:39:29;;;;;;;10.90;5.70;;;;;;;17.52;75.00;98290.42;105980;1276;25352;-68
2022/08/26 02:41:58;;;;;;;11.10;5.70;;;;;;;17.53;75.13;98290.19;105873;1277;22546;-68
2022/08/26 02:44:26;;;;;;;15.90;4.90;;;;;;;17.53;74.91;98291.00;105951;1277;25295;-69
2022/08/26 02:46:53;;;;;;;10.30;5.30;;;;;;;17.51;74.74;98289.77;106015;1277;24395;-69
2022/08/26 02:49:22;;;;;;;8.60;5.30;;;;;;;17.51;74.62;98291.76;105898;1277;24303;-68
2022/08/26 02:51:49;;;;;;;;;;;;;;;17.50;74.57;98289.01;106024;1277;22657;-68
2022/08/26 02:54:19;;;;;;;9.40;4.80;;;;;;;17.47;74.38;98285.25;105868;1277;22544;-68
2022/08/26 02:56:47;;;;;;;13.20;4.60;;;;;;;17.46;74.39;98282.17;105641;1277;25371;-69
2022/08/26 02:59:14;;;;;;;10.20;5.10;;;;;;;17.45;74.32;98282.36;105860;1277;25284;-68
2022/08/26 03:01:41;;;;;;;15.60;6.10;;;;;;;17.43;74.20;98277.97;105867;1277;22758;-68
2022/08/26 03:04:11;;;;;;;10.00;4.70;;;;;;;17.42;74.29;98276.61;105828;1277;22642;-68
2022/08/26 03:06:38;;;;;;;11.10;5.50;;;;;;;17.41;74.17;98277.71;105968;1277;25233;-68
2022/08/26 03:09:05;;;;;;;6.60;4.50;;;;;;;17.40;74.20;98280.54;105909;1277;24222;-68
2022/08/26 03:11:32;;;;;;;9.70;4.40;;;;;;;17.38;74.13;98280.19;105875;1277;22549;-69
2022/08/26 03:14:00;;;;;;;10.80;4.50;;;;;;;17.37;73.99;98283.06;105885;1277;25242;-69
2022/08/26 03:16:26;;;;;;;10.10;4.90;;;;;;;17.33;74.20;98281.35;105865;1277;22531;-68
2022/08/26 03:18:53;;;;;;;10.20;5.00;;;;;;;17.28;74.63;98283.49;105757;1277;22580;-69
2022/08/26 03:21:20;;;;;;;8.40;5.50;;;;;;;17.18;74.89;98281.80;105886;1277;25535;-68
2022/08/26 03:23:48;;;;;;;14.80;5.60;;;;;;;17.07;75.35;98278.39;105872;1277;23501;-68
2022/08/26 03:26:15;;;;;;;13.30;5.20;;;;;;;16.98;75.54;98279.86;105880;1277;30467;-69
2022/08/26 03:31:28;;;;;;;9.40;5.20;;;;;;;16.90;75.75;98279.29;105774;1277;24091;-69
2022/08/26 03:33:55;;;;;;;8.40;4.90;;;;;;;16.88;76.10;98278.33;105741;1276;25357;-69
2022/08/26 03:36:22;;;;;;;7.30;4.40;;;;;;;16.88;76.06;98277.10;105710;1277;24373;-69
2022/08/26 03:38:49;;;;;;;11.60;5.40;;;;;;;16.89;76.15;98280.52;105864;1277;23056;-69
2022/08/26 03:41:16;;;;;;;12.00;5.50;;;;;;;16.90;76.02;98282.16;105701;1277;25534;-69
2022/08/26 03:43:43;;;;;;;8.40;4.90;;;;;;;16.89;76.28;98281.73;105863;1277;22521;-69
2022/08/26 03:46:11;;;;;;;10.80;5.00;;;;;;;16.89;76.16;98281.98;105891;1277;22550;-69
2022/08/26 03:48:38;;;;;;;11.10;5.60;;;;;;;16.88;76.40;98278.76;105888;1276;22550;-69
2022/08/26 03:51:16;;;;;;;11.00;4.40;;;;;;;16.87;76.10;98278.44;105888;1277;22557;-69
2022/08/26 03:53:43;;;;;;;9.00;4.90;;;;;;;16.86;76.27;98278.44;105707;1277;24284;-69
2022/08/26 03:56:10;;;;;;;9.20;4.70;;;;;;;16.82;76.21;98277.05;105865;1277;23977;-68
2022/08/26 03:58:37;;;;;;;12.60;5.30;;;;;;;16.75;76.30;98280.45;105880;1277;25359;-69
2022/08/26 04:05:05;;;;;;;13.00;6.10;;;;;;;16.52;77.14;98283.08;105885;1275;22568;-69
2022/08/26 04:07:31;;;;;;;12.50;5.70;;;;;;;16.49;77.27;98284.15;105998;1274;24302;-69
2022/08/26 04:09:58;;;;;;;7.40;4.90;;;;;;;16.48;77.42;98284.60;105906;1274;22600;-69
2022/08/26 04:12:25;;;;;;;10.10;5.00;;;;;;;16.50;77.70;98284.92;105919;1274;24935;-69
2022/08/26 04:14:52;;;;;;;12.70;5.10;;;;;;;16.51;77.69;98286.66;105900;1274;24262;-69
2022/08/26 04:17:20;;;;;;;11.70;5.40;;;;;;;16.50;77.59;98286.61;105905;1277;25512;-68
2022/08/26 04:19:46;;;;;;;10.10;5.00;;;;;;;16.46;77.78;98286.94;105906;1275;22568;-69
2022/08/26 04:22:13;;;;;;;8.20;5.50;;;;;;;16.39;77.83;98283.09;105891;1277;25419;-69
2022/08/26 04:24:40;;;;;;;14.70;5.70;;;;;;;16.31;78.06;98285.34;105893;1277;22535;-69
2022/08/26 04:27:07;;;;;;;12.50;6.20;;;;;;;16.24;78.44;98284.17;105961;1274;25238;-69
2022/08/26 04:29:34;;;;;;;10.50;6.30;;;;;;;16.23;79.00;98283.88;105928;1274;25297;-69
2022/08/26 04:32:01;;;;;;;12.60;6.70;;;;;;;16.26;79.09;98286.81;106022;1274;22538;-69
2022/08/26 04:34:28;;;;;;;15.50;5.30;;;;;;;16.30;79.06;98285.19;105912;1274;25582;-68
2022/08/26 04:36:56;;;;;;;13.20;5.00;;;;;;;16.35;79.14;98283.89;105885;1274;23848;-69
2022/08/26 04:39:24;;;;;;;9.00;4.90;;;;;;;16.41;78.63;98282.02;105895;1277;22556;-69
2022/08/26 04:41:53;;;;;;;10.00;5.20;;;;;;;16.47;78.36;98279.29;105889;1277;22557;-69
2022/08/26 04:44:23;;;;;;;13.40;5.50;;;;;;;16.53;78.14;98278.06;105948;1277;24277;-69
2022/08/26 04:46:51;;;;;;;12.50;5.10;;;;;;;16.59;77.97;98278.23;105970;1274;22576;-69
2022/08/26 04:49:18;;;;;;;13.40;5.20;;;;;;;16.66;77.59;98278.45;106014;1274;22743;-69
2022/08/26 04:51:45;;;;;;;11.10;5.40;;;;;;;16.73;77.30;98274.27;105886;1274;22552;-69
2022/08/26 04:54:13;;;;;;;7.70;5.00;;;;;;;16.78;77.29;98271.02;105948;1274;24215;-69
2022/08/26 04:56:43;;;;;;;14.50;5.50;;;;;;;16.85;76.42;98274.49;105853;1277;22676;-69
2022/08/26 04:59:14;;;;;;;14.00;5.60;;;;;;;16.92;76.63;98267.61;105927;1277;24208;-69
2022/08/26 05:01:47;;;;;;;9.80;4.70;;;;;;;17.00;75.91;98269.39;105916;1277;24297;-69
2022/08/26 05:04:15;;;;;;;12.40;4.70;;;;;;;17.09;75.58;98264.84;105861;1276;22550;-69
2022/08/26 05:06:42;;;;;;;13.10;5.00;;;;;;;17.17;74.96;98267.27;105760;1277;24225;-69
2022/08/26 05:09:09;;;;;;;9.20;4.70;;;;;;;17.25;74.82;98270.30;105844;1274;23916;-69
2022/08/26 05:11:37;;;;;;;13.60;4.40;;;;;;;17.33;74.49;98271.66;105907;1274;22704;-69
2022/08/26 05:14:04;;;;;;;11.90;4.70;;;;;;;17.39;74.12;98272.85;105869;1274;25216;-69
2022/08/26 05:16:32;;;;;;;7.30;4.30;;;;;;;17.46;73.75;98274.90;105866;1274;23921;-69
2022/08/26 05:18:59;;;;;;;10.40;4.60;;;;;;;17.54;73.51;98278.39;105892;1277;25425;-69
2022/08/26 05:21:27;;;;;;;8.10;4.50;;;;;;;17.61;73.08;98276.30;105901;1277;24290;-69
2022/08/26 05:23:54;;;;;;;18.70;5.60;;;;;;;17.68;73.04;98277.43;105889;1277;25249;-69
2022/08/26 05:26:24;;;;;;;8.80;4.90;;;;;;;17.74;72.73;98276.48;105824;1274;22597;-69
2022/08/26 05:28:52;;;;;;;8.10;4.50;;;;;;;17.80;72.88;98276.99;105856;1274;26513;-69
2022/08/26 05:31:25;;;;;;;9.10;4.60;;;;;;;17.85;72.44;98278.36;105859;1274;25370;-69
2022/08/26 05:33:53;;;;;;;13.10;4.40;;;;;;;17.91;72.37;98279.73;105846;1274;22743;-69
2022/08/26 05:36:24;;;;;;;10.80;4.70;;;;;;;17.97;71.99;98277.65;105803;1274;22568;-69
2022/08/26 05:38:51;;;;;;;11.50;5.00;;;;;;;18.02;71.79;98280.10;105802;1277;22867;-69
2022/08/26 05:41:27;;;;;;;15.00;4.90;;;;;;;18.07;71.63;98276.46;105810;1277;22550;-69
2022/08/26 05:43:56;;;;;;;18.20;5.20;;;;;;;18.13;71.35;98277.60;105786;1277;22743;-69
2022/08/26 05:46:25;;;;;;;7.70;4.80;;;;;;;18.17;71.30;98270.08;105782;1277;22532;-69
2022/08/26 05:48:53;;;;;;;12.50;4.90;;;;;;;18.24;70.95;98266.13;106087;1274;30217;-69
2022/08/26 05:51:21;;;;;;;8.00;4.50;;;;;;;18.30;71.17;98268.00;105892;1274;22667;-69
2022/08/26 05:53:49;;;;;;;8.10;5.20;;;;;;;18.35;70.96;98268.42;105800;1274;22617;-69
2022/08/26 05:56:18;;;;;;;9.70;4.30;;;;;;;18.41;71.02;98267.94;105832;1277;23951;-69
2022/08/26 05:58:45;;;;;;;7.30;4.20;;;;;;;18.47;70.75;98269.55;105847;1274;26732;-65
2022/08/26 06:01:16;;;;;;;9.80;4.70;;;;;;;18.56;71.76;98269.73;105772;1277;24302;-69
2022/08/26 06:03:45;;;;;;;13.40;4.60;;;;;;;18.64;71.01;98267.92;105839;1277;24246;-69
2022/08/26 06:06:17;;;;;;;13.90;4.80;;;;;;;18.71;70.73;98268.52;105810;1277;25445;-69
2022/08/26 06:08:44;;;;;;;12.70;5.00;;;;;;;18.78;70.63;98270.02;105823;1274;24492;-68
2022/08/26 06:11:14;;;;;;;15.40;6.10;;;;;;;18.83;70.59;98266.95;105736;1274;22538;-69
2022/08/26 06:13:42;;;;;;;13.30;5.30;;;;;;;18.88;70.24;98267.98;105839;1274;26820;-69
2022/08/26 06:16:13;;;;;;;9.40;5.30;;;;;;;18.93;70.11;98265.45;105842;1274;22553;-69
2022/08/26 06:18:42;;;;;;;10.70;4.50;;;;;;;18.99;69.94;98269.42;105838;1274;22550;-69
2022/08/26 06:21:21;;;;;;;10.10;4.40;;;;;;;19.04;69.95;98273.42;105910;1277;24090;-69
2022/08/26 06:26:35;;;;;;;9.10;4.90;;;;;;;19.13;69.86;98274.67;105828;1277;22723;-69
2022/08/26 06:29:04;;;;;;;12.70;4.90;;;;;;;19.19;69.88;98275.02;105883;1274;25287;-69
2022/08/26 06:31:32;;;;;;;;;;;;;;;19.24;69.86;98271.59;105923;1273;24220;-69
2022/08/26 06:33:59;;;;;;;9.90;5.10;;;;;;;19.28;69.86;98269.14;105876;1274;24218;-69
2022/08/26 06:36:29;;;;;;;14.70;5.50;;;;;;;19.33;69.95;98268.90;105893;1274;25323;-69
2022/08/26 06:39:03;;;;;;;13.50;5.40;;;;;;;19.39;69.72;98270.19;105889;1274;25493;-69
2022/08/26 06:41:32;;;;;;;12.90;5.20;;;;;;;19.44;68.79;98274.48;105888;1277;22560;-69
2022/08/26 06:44:00;;;;;;;13.80;5.10;;;;;;;19.50;68.93;98277.91;105940;1277;22557;-69
2022/08/26 06:46:28;;;;;;;11.20;5.50;;;;;;;19.56;68.49;98278.35;105832;1276;24412;-69
2022/08/26 06:48:57;;;;;;;13.20;5.10;;;;;;;19.62;68.49;98277.51;104609;1277;1714440;-70
2022/08/26 06:51:29;;;;;;;14.60;6.10;;;;;;;19.68;68.37;98272.41;105936;1274;24224;-70
2022/08/26 06:53:59;;;;;;;17.10;5.10;;;;;;;19.76;68.12;98271.42;105893;1274;22594;-70
2022/08/26 06:56:31;;;;;;;13.70;5.60;;;;;;;19.83;67.97;98268.06;105931;1274;22763;-69
2022/08/26 06:58:58;;;;;;;11.80;5.20;;;;;;;19.89;67.89;98269.14;105885;1274;24393;-69
2022/08/26 07:01:31;;;;;;;10.60;5.20;;;;;;;19.96;67.88;98264.89;105636;1277;24283;-69
2022/08/26 07:04:02;;;;;;;11.00;4.90;;;;;;;20.05;68.07;98268.06;106003;1277;22560;-69
2022/08/26 07:06:30;;;;;;;9.10;5.50;;;;;;;20.13;67.78;98269.10;105932;1277;25414;-69
2022/08/26 07:09:03;;;;;;;8.90;5.50;;;;;;;20.20;68.09;98275.45;106114;1274;25688;-70
2022/08/26 07:11:32;;;;;;;10.70;4.50;;;;;;;20.28;67.73;98274.76;105939;1274;24201;-69
2022/08/26 07:13:59;;;;;;;12.30;5.30;;;;;;;20.37;67.57;98273.22;105979;1274;25383;-69
2022/08/26 07:16:28;;;;;;;11.20;4.90;;;;;;;20.44;67.25;98267.07;105938;1274;23951;-69
2022/08/26 07:18:56;;;;;;;;;;;;;;;20.54;67.60;98268.66;105962;1274;24216;-70
2022/08/26 07:21:23;;;;;;;13.90;5.30;;;;;;;20.61;67.21;98267.33;105832;1277;26488;-69
2022/08/26 07:23:52;;;;;;;15.00;5.30;;;;;;;20.70;66.99;98264.69;105898;1277;25351;-69
2022/08/26 07:26:23;;;;;;;8.10;5.00;;;;;;;20.78;66.51;98262.96;105937;1277;25296;-70
2022/08/26 07:28:51;;;;;;;11.40;5.30;;;;;;;20.86;66.38;98264.35;105984;1274;24271;-70
2022/08/26 07:31:21;;;;;;;9.10;4.70;;;;;;;20.94;66.48;98261.63;105894;1274;24224;-70
2022/08/26 07:33:49;;;;;;;13.70;4.80;;;;;;;21.05;67.22;98258.88;105968;1274;22734;-69
2022/08/26 07:36:17;;;;;;;8.50;4.90;;;;;;;21.21;66.27;98256.66;106137;1277;22535;-70
2022/08/26 07:38:44;;;;;;;10.50;5.30;;;;;;;21.31;65.49;98251.84;105861;1277;22546;-69
2022/08/26 07:41:14;;;;;;;8.70;5.00;;;;;;;21.40;65.22;98254.19;105493;1277;22580;-69
2022/08/26 07:43:41;;;;;;;13.80;5.20;;;;;;;21.49;64.69;98256.39;105850;1276;22548;-69
2022/08/26 07:46:09;;;;;;;14.10;4.70;;;;;;;21.57;64.55;98257.64;105586;1277;22672;-69
2022/08/26 07:48:36;;;;;;;9.20;4.90;;;;;;;21.67;64.50;98255.48;105954;1274;23191;-69
2022/08/26 07:51:03;;;;;;;10.10;5.20;;;;;;;21.76;64.24;98256.96;105886;1274;22554;-69
2022/08/26 07:53:30;;;;;;;10.80;5.10;;;;;;;21.86;64.36;98255.60;105883;1274;24302;-69
2022/08/26 07:55:57;;;;;;;11.30;4.80;;;;;;;21.95;63.48;98252.77;105888;1274;25257;-69
2022/08/26 07:58:24;;;;;;;10.30;4.40;;;;;;;22.03;63.18;98254.64;105926;1274;22651;-69
2022/08/26 08:00:51;;;;;;;6.90;4.50;;;;;;;22.12;62.73;98254.58;105836;1274;24262;-69
2022/08/26 08:03:19;;;;;;;8.50;4.60;;;;;;;22.21;62.34;98255.84;105840;1277;24328;-70
2022/08/26 08:05:46;;;;;;;16.00;5.20;;;;;;;22.30;62.32;98253.42;105742;1277;22614;-69
2022/08/26 08:08:13;;;;;;;11.00;4.70;;;;;;;22.41;62.35;98253.19;105724;1277;25312;-69
2022/08/26 08:10:40;;;;;;;12.30;4.60;;;;;;;22.51;61.82;98247.69;105861;1274;22554;-70
2022/08/26 08:13:09;;;;;;;10.90;4.70;;;;;;;22.59;61.58;98244.96;105919;1273;22547;-69
2022/08/26 08:15:36;;;;;;;7.20;5.10;;;;;;;22.70;61.66;98246.37;105953;1275;22715;-70
2022/08/26 08:18:05;;;;;;;9.40;5.00;;;;;;;22.83;61.76;98246.99;105843;1274;25304;-70
2022/08/26 08:20:33;;;;;;;11.20;4.80;;;;;;;22.96;62.03;98250.17;105933;1277;25299;-69
2022/08/26 08:23:03;;;;;;;11.70;4.40;;;;;;;23.08;61.34;98244.61;105813;1277;23065;-69
2022/08/26 08:25:31;;;;;;;10.20;4.30;;;;;;;23.20;59.99;98239.70;105855;1277;22531;-69
2022/08/26 08:27:58;;;;;;;11.00;4.90;;;;;;;23.27;59.57;98240.25;105707;1277;25400;-69
2022/08/26 08:30:26;;;;;;;10.10;4.90;;;;;;;23.36;59.31;98235.09;105682;1277;22595;-69
2022/08/26 08:32:54;;;;;;;8.50;4.90;;;;;;;23.48;59.44;98238.30;105892;1277;25232;-69
2022/08/26 08:35:22;;;;;;;9.70;4.40;;;;;;;23.59;58.47;98238.41;106136;1274;24410;-70
2022/08/26 08:37:53;;;;;;;13.70;5.20;;;;;;;23.68;58.44;98237.42;105919;1274;24256;-70
2022/08/26 08:40:23;;;;;;;8.50;4.40;;;;;;;23.80;57.92;98236.77;105871;1274;23919;-69
2022/08/26 08:43:02;;;;;;;8.20;4.30;;;;;;;23.93;57.75;98232.98;105871;1274;25232;-69
2022/08/26 08:45:37;;;;;;;10.50;4.40;;;;;;;24.06;57.03;98230.70;105875;1274;25272;-70
2022/08/26 08:48:15;;;;;;;11.10;4.70;;;;;;;24.19;56.56;98230.30;105870;1274;22555;-69
2022/08/26 08:50:49;;;;;;;17.60;4.90;;;;;;;24.32;56.19;98230.77;105976;1274;25183;-69
2022/08/26 08:53:26;;;;;;;9.30;4.80;;;;;;;24.42;56.11;98226.29;106068;1274;25017;-70
2022/08/26 08:56:36;;;;;;;11.70;4.40;;;;;;;24.56;56.01;98224.73;105860;1274;22852;-69
2022/08/26 08:59:18;;;;;;;12.60;4.40;;;;;;;24.71;56.03;98219.85;105906;1274;26500;-71
2022/08/26 09:01:54;;;;;;;11.70;4.90;;;;;;;24.83;56.09;98218.92;105913;1274;24310;-70
2022/08/26 09:04:33;;;;;;;9.30;4.20;;;;;;;24.95;54.86;98220.52;105902;1274;25241;-70
2022/08/26 09:07:02;;;;;;;10.90;5.00;;;;;;;25.05;54.77;98217.58;105868;1274;22547;-70
2022/08/26 09:09:36;;;;;;;13.20;4.30;;;;;;;25.16;54.51;98219.70;105949;1274;22555;-69
2022/08/26 09:12:10;;;;;;;9.20;4.10;;;;;;;25.28;53.58;98215.17;105866;1274;22548;-69
2022/08/26 09:14:37;;;;;;;9.00;4.30;;;;;;;25.41;53.11;98211.61;105912;1274;25617;-69
2022/08/26 09:17:17;;;;;;;8.10;4.20;;;;;;;25.54;52.64;98207.08;105857;1274;23964;-68
2022/08/26 09:20:17;;;;;;;11.00;4.40;;;;;;;25.69;52.72;98207.84;105892;1274;22550;-69
2022/08/26 09:22:45;;;;;;;13.90;4.50;;;;;;;25.84;51.28;98212.21;105914;1274;24218;-69
2022/08/26 09:25:14;;;;;;;8.00;4.00;;;;;;;25.94;51.30;98206.23;105822;1277;25217;-68
2022/08/26 09:27:48;;;;;;;12.30;4.70;;;;;;;26.05;51.19;98206.09;105849;1277;24228;-68
2022/08/26 09:30:22;;;;;;;10.10;4.30;;;;;;;26.17;51.11;98205.08;105871;1277;22659;-68
2022/08/26 09:33:05;;;;;;;9.20;4.40;;;;;;;26.29;50.97;98204.16;106114;1274;23345;-68
2022/08/26 09:35:36;;;;;;;10.00;4.20;;;;;;;26.43;50.81;98203.25;105559;1277;24296;-68
2022/08/26 09:38:31;;;;;;;8.40;4.10;;;;;;;26.56;50.60;98203.05;105883;1277;22580;-68
2022/08/26 09:41:07;;;;;;;9.80;4.40;;;;;;;26.72;50.39;98198.39;105894;1274;25297;-68
2022/08/26 09:43:34;;;;;;;10.00;4.40;;;;;;;26.85;50.16;98197.13;106061;1276;30402;-68
2022/08/26 09:46:21;;;;;;;15.30;4.60;;;;;;;26.99;49.71;98193.89;105838;1277;22550;-68
2022/08/26 09:48:48;;;;;;;9.90;4.50;;;;;;;27.12;49.14;98187.50;105897;1277;22537;-68
2022/08/26 09:51:25;;;;;;;10.90;4.30;;;;;;;27.27;48.99;98185.08;105811;1277;22556;-68
2022/08/26 09:53:56;;;;;;;14.00;4.20;;;;;;;27.39;48.59;98186.98;105872;1274;30414;-68
2022/08/26 09:56:25;;;;;;;7.70;3.90;;;;;;;27.51;49.04;98184.85;105893;1274;24260;-68
2022/08/26 09:58:53;;;;;;;8.70;3.80;;;;;;;27.61;47.98;98179.96;106141;1274;22574;-68
2022/08/26 10:01:22;;;;;;;7.10;3.70;;;;;;;27.66;47.12;98180.55;105881;1274;23304;-68
2022/08/26 10:03:50;;;;;;;9.70;4.20;;;;;;;27.73;47.25;98176.95;105850;1274;25247;-68
2022/08/26 10:06:17;;;;;;;8.60;4.00;;;;;;;27.80;47.05;98179.59;105918;1277;25207;-68
2022/08/26 10:08:48;;;;;;;9.70;3.90;;;;;;;27.89;47.31;98178.75;105901;1277;25371;-68
2022/08/26 10:11:42;;;;;;;9.80;3.90;;;;;;;28.01;46.96;98179.10;105898;1277;24256;-68
2022/08/26 10:14:36;;;;;;;14.50;4.10;;;;;;;28.15;46.97;98179.54;105861;1274;22995;-69
2022/08/26 10:17:10;;;;;;;14.90;4.90;;;;;;;28.28;46.85;98175.64;105781;1277;23931;-68
2022/08/26 10:19:46;;;;;;;6.90;3.90;;;;;;;28.42;46.76;98179.75;105906;1274;22589;-68
2022/08/26 10:22:21;;;;;;;11.40;3.60;;;;;;;28.56;46.70;98177.00;105951;1274;24352;-68
2022/08/26 10:24:53;;;;;;;12.00;4.70;;;;;;;28.65;46.01;98175.88;105821;1274;31722;-68
2022/08/26 10:27:26;;;;;;;7.60;4.20;;;;;;;28.75;45.79;98172.61;105936;1274;22626;-68
2022/08/26 10:30:02;;;;;;;9.30;4.70;;;;;;;28.86;45.80;98173.86;105853;1274;25230;-68
2022/08/26 10:32:33;;;;;;;11.10;3.80;;;;;;;28.95;45.39;98170.71;105842;1274;25244;-68
2022/08/26 10:35:02;;;;;;;10.30;3.60;;;;;;;29.02;44.27;98168.10;105804;1274;30677;-68
2022/08/26 10:37:43;;;;;;;9.60;4.00;;;;;;;29.08;43.87;98167.89;105674;1274;24215;-68
2022/08/26 10:40:18;;;;;;;11.50;3.50;;;;;;;29.17;44.04;98164.29;105847;1274;25358;-68
2022/08/26 10:43:17;;;;;;;7.00;3.50;;;;;;;29.27;43.54;98161.32;105865;1274;22541;-69
2022/08/26 10:46:00;;;;;;;11.40;3.90;;;;;;;29.40;44.14;98162.31;105487;1283;30380;-68
2022/08/26 10:48:31;;;;;;;9.10;3.70;;;;;;;29.54;44.09;98158.75;105323;1281;22545;-68
2022/08/26 10:51:01;;;;;;;11.30;3.60;;;;;;;29.66;42.65;98153.55;105388;1281;25538;-68
2022/08/26 10:53:44;;;;;;;12.90;3.90;;;;;;;29.70;42.01;98150.55;105246;1281;24234;-69
2022/08/26 10:56:49;;;;;;;11.00;3.60;;;;;;;29.78;42.97;98153.56;105303;1280;30602;-69
2022/08/26 10:59:23;;;;;;;12.90;3.90;;;;;;;29.91;42.89;98148.67;105453;1280;22547;-68
2022/08/26 11:02:05;;;;;;;11.50;3.80;;;;;;;30.04;43.10;98145.06;105579;1280;22642;-68
2022/08/26 11:05:02;;;;;;;8.80;3.80;;;;;;;30.24;43.79;98145.48;105282;1283;24241;-70
2022/08/26 11:07:43;;;;;;;10.90;3.60;;;;;;;30.42;42.12;98144.88;105249;1283;22562;-69
2022/08/26 11:10:59;;;;;;;9.20;3.60;;;;;;;30.51;41.29;98142.97;105220;1283;25341;-70
2022/08/26 11:14:00;;;;;;;10.20;3.10;;;;;;;30.66;41.00;98142.30;104645;1289;22582;-70
2022/08/26 11:16:45;;;;;;;8.30;3.50;;;;;;;30.77;40.52;98142.41;104903;1287;30237;-71
2022/08/26 11:19:33;;;;;;;10.60;3.40;;;;;;;30.89;40.09;98139.71;104790;1287;24438;-69
2022/08/26 11:22:05;;;;;;;16.30;4.00;;;;;;;30.98;39.77;98135.48;104827;1281;22604;-68
2022/08/26 11:24:39;;;;;;;9.40;3.30;;;;;;;31.07;39.54;98131.98;105336;1281;22586;-67
2022/08/26 11:27:09;;;;;;;10.40;3.10;;;;;;;31.16;39.41;98128.86;105405;1281;25606;-67
2022/08/26 11:30:14;;;;;;;12.10;4.50;;;;;;;31.23;39.65;98121.67;105369;1281;22550;-68
2022/08/26 11:32:42;;;;;;;8.20;3.10;;;;;;;31.31;39.08;98125.58;104777;1287;22550;-68
2022/08/26 11:35:34;;;;;;;10.00;3.20;;;;;;;31.38;38.01;98120.40;104685;1289;25500;-67
2022/08/26 11:38:13;;;;;;;10.30;2.90;;;;;;;31.46;37.89;98116.66;104717;1288;24306;-68
2022/08/26 11:40:40;;;;;;;10.20;3.00;;;;;;;31.50;37.20;98112.14;104768;1289;25380;-68
2022/08/26 11:43:17;;;;;;;10.50;3.70;;;;;;;31.51;37.05;98109.40;104736;1287;24391;-67
2022/08/26 11:45:58;;;;;;;7.80;2.80;;;;;;;31.56;36.93;98109.66;104812;1286;25667;-68
2022/08/26 11:48:25;;;;;;;5.00;2.80;;;;;;;31.59;36.09;98103.58;104782;1287;22581;-68
2022/08/26 11:50:58;;;;;;;15.40;3.40;;;;;;;31.64;35.96;98103.44;105121;1281;22626;-68